Dededo, Guam
Current Conditions -  °F | °C
As of 8:54 AM on Friday 19 Dec 2014 (Local Time) from PGUM Reporting Station
Broken Clouds Broken Clouds  
Wind Chill: 28°   Ceiling: 5500
Heat Index: 32°   Visibility: 10mi
Dew Point: 24°   Wind: 16mph
Humidity: 77%   Direction: 40°NE
Pressure: 29.98"   Gusts: NA
Location:  13.51°N, 144.84°E
Report Text: PGUM 182254Z 04014KT 10SM FEW021 BKN055 BKN070 28/24 A2998 RMK AO2 SLP144 T02830239
Loading
Personal Weather Stations






























Interactive Weather Map New forecast layout! Learn more

10-Day Weather Forecast

Advertisements
Track Severe Weather on mobile